createdAt,value
2019-04-25T00:02:30.925Z,13.00
2019-04-25T00:05:03.070Z,12.90
2019-04-25T00:07:33.051Z,12.80
2019-04-25T00:10:02.458Z,12.80
2019-04-25T00:12:32.261Z,12.80
2019-04-25T00:15:01.780Z,12.80
2019-04-25T00:17:31.557Z,12.80
2019-04-25T00:20:01.632Z,12.70
2019-04-25T00:22:33.114Z,12.50
2019-04-25T00:25:21.789Z,12.50
2019-04-25T00:27:51.722Z,12.50
2019-04-25T00:30:22.899Z,12.60
2019-04-25T00:32:52.257Z,12.60
2019-04-25T00:35:21.748Z,12.60
2019-04-25T00:37:52.501Z,12.60
2019-04-25T00:40:22.263Z,12.50
2019-04-25T00:42:53.457Z,12.50
2019-04-25T00:45:22.749Z,12.50
2019-04-25T00:47:52.919Z,12.50
2019-04-25T00:50:22.440Z,12.50
2019-04-25T00:52:53.317Z,12.00
2019-04-25T00:55:28.383Z,12.40
2019-04-25T00:57:55.707Z,12.30
2019-04-25T01:00:35.489Z,12.30
2019-04-25T01:03:06.558Z,12.40
2019-04-25T01:05:35.975Z,12.40
2019-04-25T01:08:05.326Z,12.40
2019-04-25T01:10:34.666Z,12.40
2019-04-25T01:13:04.910Z,12.40
2019-04-25T01:15:34.387Z,12.50
2019-04-25T01:18:04.086Z,12.50
2019-04-25T01:20:34.479Z,12.50
2019-04-25T01:23:04.075Z,12.50
2019-04-25T01:25:40.883Z,12.40
2019-04-25T01:28:04.913Z,12.30
2019-04-25T01:30:34.427Z,12.30
2019-04-25T01:33:03.854Z,11.80
2019-04-25T01:35:40.749Z,11.90
2019-04-25T01:38:13.706Z,12.00
2019-04-25T01:40:48.532Z,12.20
2019-04-25T01:43:20.230Z,12.20
2019-04-25T01:45:49.740Z,12.20
2019-04-25T01:48:19.301Z,12.20
2019-04-25T01:50:49.637Z,12.20
2019-04-25T01:53:19.758Z,12.10
2019-04-25T01:55:56.229Z,12.10
2019-04-25T01:58:20.233Z,12.10
2019-04-25T02:00:52.094Z,12.10
2019-04-25T02:03:26.645Z,12.00
2019-04-25T02:05:55.210Z,12.10
2019-04-25T02:08:24.787Z,12.10
2019-04-25T02:11:14.195Z,11.90
2019-04-25T02:13:43.833Z,12.00
2019-04-25T02:16:14.263Z,12.00
2019-04-25T02:18:43.746Z,12.00
2019-04-25T02:21:13.719Z,12.00
2019-04-25T02:23:44.225Z,12.00
2019-04-25T02:26:16.716Z,12.00
2019-04-25T02:28:44.715Z,12.10
2019-04-25T02:31:17.977Z,12.10
2019-04-25T02:33:45.184Z,12.10
2019-04-25T02:36:15.188Z,12.10
2019-04-25T02:38:44.814Z,12.10
2019-04-25T02:41:14.731Z,12.00
2019-04-25T02:43:45.202Z,11.90
2019-04-25T02:46:31.132Z,12.00
2019-04-25T02:49:04.114Z,11.90
2019-04-25T02:51:51.441Z,12.00
2019-04-25T02:54:20.787Z,12.00
2019-04-25T02:56:50.126Z,11.90
2019-04-25T02:59:19.495Z,11.90
2019-04-25T03:01:48.896Z,11.80
2019-04-25T03:04:18.259Z,11.80
2019-04-25T03:06:47.621Z,11.70
2019-04-25T03:09:17.125Z,11.80
2019-04-25T03:11:47.752Z,11.70
2019-04-25T03:14:17.313Z,11.70
2019-04-25T03:16:46.810Z,11.70
2019-04-25T03:19:24.614Z,11.70
2019-04-25T03:22:08.401Z,11.70
2019-04-25T03:24:36.380Z,11.70
2019-04-25T03:27:06.245Z,11.60
2019-04-25T03:29:36.446Z,11.60
2019-04-25T03:32:11.378Z,11.60
2019-04-25T03:34:36.855Z,11.60
2019-04-25T03:37:06.548Z,11.60
2019-04-25T03:39:36.743Z,11.50
2019-04-25T03:42:06.267Z,11.50
2019-04-25T03:44:35.788Z,11.50
2019-04-25T03:47:06.472Z,11.50
2019-04-25T03:49:36.246Z,11.50
2019-04-25T03:52:06.402Z,11.60
2019-04-25T03:54:36.020Z,11.50
2019-04-25T03:57:06.658Z,11.50
2019-04-25T03:59:36.411Z,11.50
2019-04-25T04:02:07.009Z,11.50
2019-04-25T04:04:36.877Z,11.50
2019-04-25T04:07:08.791Z,11.50
2019-04-25T04:09:37.298Z,11.50
2019-04-25T04:12:06.632Z,11.50
2019-04-25T04:14:35.986Z,11.50
2019-04-25T04:17:10.718Z,11.50
2019-04-25T04:19:57.161Z,11.50
2019-04-25T04:22:34.298Z,11.50
2019-04-25T04:25:05.893Z,11.40
2019-04-25T04:27:35.403Z,11.50
2019-04-25T04:30:08.021Z,11.50
2019-04-25T04:32:37.459Z,11.40
2019-04-25T04:35:07.312Z,11.40
2019-04-25T04:37:36.713Z,11.40
2019-04-25T04:40:08.054Z,11.40
2019-04-25T04:42:37.528Z,11.40
2019-04-25T04:45:08.380Z,11.40
2019-04-25T04:47:37.980Z,11.50
2019-04-25T04:50:08.909Z,11.50
2019-04-25T04:52:38.398Z,11.50
2019-04-25T04:55:09.746Z,11.50
2019-04-25T04:57:38.802Z,11.60
2019-04-25T05:00:08.709Z,11.50
2019-04-25T05:02:43.356Z,11.60
2019-04-25T05:05:30.602Z,11.70
2019-04-25T05:08:03.782Z,11.70
2019-04-25T05:10:33.332Z,11.90
2019-04-25T05:13:04.239Z,12.10
2019-04-25T05:15:33.752Z,12.10
2019-04-25T05:18:04.041Z,12.10
2019-04-25T05:20:34.161Z,12.10
2019-04-25T05:23:04.633Z,12.20
2019-04-25T05:25:34.542Z,12.30
2019-04-25T05:28:05.321Z,12.40
2019-04-25T05:30:39.149Z,12.40
2019-04-25T05:33:09.166Z,12.50
2019-04-25T05:35:38.522Z,12.80
2019-04-25T05:38:07.883Z,12.80
2019-04-25T05:40:57.104Z,12.90
2019-04-25T05:43:28.108Z,13.10
2019-04-25T05:45:57.556Z,13.30
2019-04-25T05:48:26.967Z,13.20
2019-04-25T05:50:56.396Z,13.10
2019-04-25T05:53:26.316Z,13.20
2019-04-25T05:55:55.762Z,13.30
2019-04-25T05:58:25.898Z,13.40
2019-04-25T06:00:56.586Z,13.50
2019-04-25T06:03:26.319Z,13.40
2019-04-25T06:05:56.784Z,13.80
2019-04-25T06:08:28.030Z,14.00
2019-04-25T06:10:59.235Z,14.30
2019-04-25T06:13:30.334Z,14.40
2019-04-25T06:16:01.383Z,14.40
2019-04-25T06:18:41.186Z,14.40
2019-04-25T06:21:13.274Z,14.40
2019-04-25T06:23:47.025Z,14.50
2019-04-25T06:26:26.647Z,14.70
2019-04-25T06:28:57.175Z,14.80
2019-04-25T06:31:21.426Z,14.60
2019-04-25T06:33:51.165Z,15.00
2019-04-25T06:36:21.123Z,15.30
2019-04-25T06:38:50.690Z,15.60
2019-04-25T06:41:20.076Z,15.50
2019-04-25T06:43:51.066Z,15.70
2019-04-25T06:46:25.746Z,15.90
2019-04-25T06:49:03.548Z,16.10
2019-04-25T06:51:51.933Z,15.60
2019-04-25T06:54:21.981Z,15.80
2019-04-25T06:56:53.569Z,15.90
2019-04-25T06:59:25.985Z,15.80
2019-04-25T07:01:56.230Z,15.80
2019-04-25T07:04:26.958Z,16.20
2019-04-25T07:07:09.442Z,15.90
2019-04-25T07:09:29.562Z,16.20
2019-04-25T07:11:58.986Z,16.20
2019-04-25T07:14:28.333Z,16.40
2019-04-25T07:16:57.747Z,16.50
2019-04-25T07:19:28.292Z,16.70
2019-04-25T07:21:58.130Z,16.80
2019-04-25T07:24:27.575Z,17.00
2019-04-25T07:27:01.680Z,16.40
2019-04-25T07:29:35.755Z,16.60
2019-04-25T07:32:10.119Z,16.80
2019-04-25T07:34:39.457Z,16.90
2019-04-25T07:37:08.822Z,16.90
2019-04-25T07:39:38.312Z,16.90
2019-04-25T07:42:07.754Z,16.80
2019-04-25T07:44:49.354Z,17.00
2019-04-25T07:47:08.331Z,17.10
2019-04-25T07:49:37.899Z,17.10
2019-04-25T07:52:07.370Z,17.10
2019-04-25T07:54:36.738Z,17.00
2019-04-25T07:57:06.172Z,17.30
2019-04-25T07:59:36.385Z,17.50
2019-04-25T08:02:06.286Z,17.70
2019-04-25T08:04:37.003Z,17.70
2019-04-25T08:07:06.929Z,17.90
2019-04-25T08:09:37.073Z,17.90
2019-04-25T08:12:07.363Z,17.90
2019-04-25T08:14:38.405Z,17.70
2019-04-25T08:17:09.386Z,17.70
2019-04-25T08:19:39.357Z,17.40
2019-04-25T08:22:08.737Z,17.50
2019-04-25T08:24:39.223Z,17.70
2019-04-25T08:27:08.666Z,17.80
2019-04-25T08:29:39.613Z,18.00
2019-04-25T08:32:09.147Z,18.30
2019-04-25T08:34:38.658Z,17.80
2019-04-25T08:37:17.569Z,18.50
2019-04-25T08:39:39.814Z,18.60
2019-04-25T08:42:09.322Z,19.00
2019-04-25T08:44:39.232Z,19.10
2019-04-25T08:47:08.722Z,19.40
2019-04-25T08:49:40.085Z,19.60
2019-04-25T08:52:09.551Z,19.70
2019-04-25T08:54:47.690Z,19.90
2019-04-25T08:57:19.099Z,20.00
2019-04-25T08:59:52.708Z,20.10
2019-04-25T09:02:28.283Z,20.20
2019-04-25T09:05:16.112Z,20.10
2019-04-25T09:07:45.713Z,20.30
2019-04-25T09:10:15.267Z,20.30
2019-04-25T09:12:45.395Z,20.30
2019-04-25T09:15:15.348Z,20.40
2019-04-25T09:17:47.060Z,20.50
2019-04-25T09:20:16.354Z,20.70
2019-04-25T09:22:45.802Z,20.70
2019-04-25T09:25:15.903Z,20.30
2019-04-25T09:27:45.870Z,20.50
2019-04-25T09:30:16.662Z,20.50
2019-04-25T09:32:46.086Z,20.70
2019-04-25T09:35:15.442Z,20.80
2019-04-25T09:37:46.145Z,20.80
2019-04-25T09:40:16.783Z,20.70
2019-04-25T09:42:46.878Z,20.80
2019-04-25T09:45:26.291Z,20.90
2019-04-25T09:47:56.966Z,20.90
2019-04-25T09:50:38.219Z,20.90
2019-04-25T09:53:15.463Z,21.10
2019-04-25T09:55:56.958Z,21.20
2019-04-25T09:58:27.958Z,21.40
2019-04-25T10:01:07.670Z,21.50
2019-04-25T10:03:38.603Z,21.50
2019-04-25T10:06:08.386Z,21.50
2019-04-25T10:08:38.646Z,21.70
2019-04-25T10:11:08.186Z,21.90
2019-04-25T10:13:38.464Z,22.00
2019-04-25T10:16:11.428Z,22.10
2019-04-25T10:18:41.362Z,22.30
2019-04-25T10:21:14.349Z,22.40
2019-04-25T10:23:45.380Z,22.60
2019-04-25T10:26:15.426Z,22.60
2019-04-25T10:28:45.271Z,22.80
2019-04-25T10:31:14.891Z,22.70
2019-04-25T10:33:46.698Z,22.80
2019-04-25T10:36:15.778Z,22.70
2019-04-25T10:39:00.573Z,22.80
2019-04-25T10:41:17.180Z,22.80
2019-04-25T10:43:46.602Z,22.80
2019-04-25T10:46:17.010Z,23.20
2019-04-25T10:48:46.504Z,23.00
2019-04-25T10:51:15.907Z,22.90
2019-04-25T10:53:46.762Z,22.80
2019-04-25T10:56:16.749Z,22.70
2019-04-25T10:58:46.708Z,23.00
2019-04-25T11:01:16.473Z,22.90
2019-04-25T11:03:51.648Z,22.90
2019-04-25T11:06:24.667Z,23.00
2019-04-25T11:08:56.533Z,23.10
2019-04-25T11:11:25.808Z,23.00
2019-04-25T11:13:57.702Z,23.00
2019-04-25T11:16:27.041Z,22.80
2019-04-25T11:18:56.719Z,23.10
2019-04-25T11:21:26.131Z,22.90
2019-04-25T11:23:55.673Z,23.30
2019-04-25T11:26:25.891Z,23.20
2019-04-25T11:28:55.383Z,23.40
2019-04-25T11:31:26.426Z,23.50
2019-04-25T11:33:55.865Z,23.60
2019-04-25T11:36:25.342Z,23.70
2019-04-25T11:39:13.566Z,23.70
2019-04-25T11:41:45.625Z,23.90
2019-04-25T11:44:14.214Z,23.90
2019-04-25T11:46:45.317Z,24.10
2019-04-25T11:49:15.248Z,24.30
2019-04-25T11:51:46.020Z,24.40
2019-04-25T11:54:15.790Z,24.70
2019-04-25T11:56:46.302Z,24.50
2019-04-25T11:59:16.594Z,24.50
2019-04-25T12:01:47.560Z,24.80
2019-04-25T12:04:17.372Z,25.10
2019-04-25T12:06:47.579Z,25.10
2019-04-25T12:09:17.970Z,25.10
2019-04-25T12:11:48.520Z,25.20
2019-04-25T12:14:18.149Z,25.20
2019-04-25T12:16:49.111Z,25.10
2019-04-25T12:19:18.626Z,25.40
2019-04-25T12:21:48.281Z,25.30
2019-04-25T12:24:17.673Z,25.40
2019-04-25T12:26:47.803Z,25.40
2019-04-25T12:29:18.126Z,25.60
2019-04-25T12:31:47.747Z,25.70
2019-04-25T12:34:17.146Z,25.80
2019-04-25T12:36:46.512Z,25.70
2019-04-25T12:39:16.198Z,25.60
2019-04-25T12:41:46.747Z,25.40
2019-04-25T12:44:21.491Z,25.40
2019-04-25T12:46:54.228Z,25.50
2019-04-25T12:49:24.209Z,25.80
2019-04-25T12:51:53.754Z,26.00
2019-04-25T12:54:23.853Z,25.80
2019-04-25T12:56:53.773Z,25.50
2019-04-25T12:59:23.254Z,25.60
2019-04-25T13:01:54.348Z,26.00
2019-04-25T13:04:23.734Z,25.70
2019-04-25T13:06:54.478Z,25.70
2019-04-25T13:09:24.108Z,25.50
2019-04-25T13:11:53.534Z,25.50
2019-04-25T13:14:23.094Z,25.50
2019-04-25T13:16:52.612Z,25.80
2019-04-25T13:19:25.937Z,25.70
2019-04-25T13:21:54.424Z,25.90
2019-04-25T13:24:24.044Z,25.90
2019-04-25T13:27:00.666Z,25.90
2019-04-25T13:29:34.432Z,26.10
2019-04-25T13:32:08.537Z,25.90
2019-04-25T13:34:39.604Z,26.00
2019-04-25T13:37:09.330Z,26.00
2019-04-25T13:39:38.678Z,26.10
2019-04-25T13:42:09.205Z,26.40
2019-04-25T13:44:38.553Z,26.80
2019-04-25T13:47:07.926Z,26.70
2019-04-25T13:49:37.344Z,26.70
2019-04-25T13:52:08.345Z,26.80
2019-04-25T13:54:37.709Z,26.80
2019-04-25T13:57:07.246Z,26.90
2019-04-25T13:59:36.620Z,26.90
2019-04-25T14:02:07.237Z,27.10
2019-04-25T14:04:36.690Z,27.30
2019-04-25T14:07:06.964Z,27.40
2019-04-25T14:09:36.483Z,27.40
2019-04-25T14:12:06.322Z,27.50
2019-04-25T14:14:36.042Z,27.30
2019-04-25T14:17:23.085Z,27.30
2019-04-25T14:20:00.655Z,27.30
2019-04-25T14:22:30.415Z,27.20
2019-04-25T14:25:00.007Z,27.10
2019-04-25T14:27:30.189Z,27.20
2019-04-25T14:29:59.564Z,27.20
2019-04-25T14:32:30.112Z,27.20
2019-04-25T14:34:59.675Z,27.00
2019-04-25T14:37:32.197Z,27.00
2019-04-25T14:40:00.182Z,27.00
2019-04-25T14:42:30.628Z,26.90
2019-04-25T14:45:00.174Z,27.00
2019-04-25T14:47:29.646Z,27.00
2019-04-25T14:49:59.116Z,27.20
2019-04-25T14:52:28.563Z,27.40
2019-04-25T14:54:59.558Z,27.30
2019-04-25T14:57:32.226Z,27.30
2019-04-25T15:00:04.500Z,27.20
2019-04-25T15:02:34.146Z,27.20
2019-04-25T15:05:04.827Z,27.30
2019-04-25T15:07:34.314Z,27.30
2019-04-25T15:10:05.044Z,27.10
2019-04-25T15:12:34.588Z,27.20
2019-04-25T15:15:05.335Z,26.90
2019-04-25T15:17:45.258Z,26.90
2019-04-25T15:20:07.396Z,26.70
2019-04-25T15:22:36.838Z,26.90
2019-04-25T15:25:07.192Z,27.00
2019-04-25T15:27:36.541Z,27.10
2019-04-25T15:30:09.482Z,27.20
2019-04-25T15:32:38.833Z,27.40
2019-04-25T15:35:09.909Z,27.40
2019-04-25T15:37:57.196Z,27.50
2019-04-25T15:40:41.207Z,27.40
2019-04-25T15:43:21.552Z,27.30
2019-04-25T15:46:03.826Z,27.30
2019-04-25T15:48:33.262Z,27.20
2019-04-25T15:51:02.766Z,27.20
2019-04-25T15:53:32.138Z,27.30
2019-04-25T15:56:01.595Z,27.50
2019-04-25T15:58:31.187Z,27.50
2019-04-25T16:01:00.543Z,27.60
2019-04-25T16:03:30.817Z,27.90
2019-04-25T16:06:00.383Z,28.10
2019-04-25T16:08:29.746Z,28.20
2019-04-25T16:10:59.282Z,28.30
2019-04-25T16:13:28.736Z,28.30
2019-04-25T16:15:58.079Z,28.10
2019-04-25T16:18:28.409Z,28.00
2019-04-25T16:20:58.331Z,27.90
2019-04-25T16:23:27.856Z,28.10
2019-04-25T16:25:58.202Z,28.00
2019-04-25T16:28:27.702Z,28.00
2019-04-25T16:30:57.146Z,28.00
2019-04-25T16:33:26.521Z,27.90
2019-04-25T16:35:56.224Z,27.70
2019-04-25T16:38:25.603Z,27.60
2019-04-25T16:40:55.010Z,27.50
2019-04-25T16:43:26.006Z,27.40
2019-04-25T16:45:55.444Z,27.30
2019-04-25T16:48:24.851Z,27.30
2019-04-25T16:50:54.286Z,27.30
2019-04-25T16:53:23.702Z,27.10
2019-04-25T16:55:53.131Z,27.10
2019-04-25T16:58:23.402Z,26.60
2019-04-25T17:00:57.294Z,26.40
2019-04-25T17:03:27.012Z,26.00
2019-04-25T17:05:56.436Z,25.60
2019-04-25T17:08:25.919Z,25.60
2019-04-25T17:10:55.269Z,25.60
2019-04-25T17:13:26.334Z,25.40
2019-04-25T17:16:06.143Z,25.30
2019-04-25T17:18:38.204Z,25.00
2019-04-25T17:21:11.817Z,24.80
2019-04-25T17:23:41.278Z,24.80
2019-04-25T17:26:10.686Z,24.80
2019-04-25T17:28:41.743Z,24.40
2019-04-25T17:31:21.571Z,24.50
2019-04-25T17:33:55.187Z,24.50
2019-04-25T17:36:26.266Z,24.50
2019-04-25T17:38:59.927Z,24.00
2019-04-25T17:41:29.447Z,24.00
2019-04-25T17:44:01.017Z,23.90
2019-04-25T17:46:29.898Z,23.80
2019-04-25T17:48:59.278Z,23.60
2019-04-25T17:51:30.149Z,23.60
2019-04-25T17:53:59.646Z,23.60
2019-04-25T17:56:29.026Z,23.10
2019-04-25T17:58:58.383Z,22.50
2019-04-25T18:01:27.853Z,22.80
2019-04-25T18:03:57.340Z,22.40
2019-04-25T18:06:26.773Z,22.00
2019-04-25T18:08:56.222Z,22.00
2019-04-25T18:11:25.635Z,21.60
2019-04-25T18:13:55.007Z,21.40
2019-04-25T18:16:26.072Z,21.50
2019-04-25T18:19:02.891Z,21.20
2019-04-25T18:21:32.446Z,20.90
2019-04-25T18:24:03.457Z,21.10
2019-04-25T18:26:35.268Z,20.50
2019-04-25T18:29:21.644Z,20.80
2019-04-25T18:31:51.042Z,20.70
2019-04-25T18:34:22.114Z,20.30
2019-04-25T18:36:56.117Z,20.30
2019-04-25T18:39:27.106Z,20.10
2019-04-25T18:41:58.122Z,19.80
2019-04-25T18:44:27.566Z,20.00
2019-04-25T18:46:57.006Z,19.80
2019-04-25T18:49:26.417Z,19.60
2019-04-25T18:51:58.237Z,19.60
2019-04-25T18:54:29.361Z,19.20
2019-04-25T18:57:00.369Z,19.40
2019-04-25T18:59:33.908Z,19.30
2019-04-25T19:02:05.236Z,19.00
2019-04-25T19:04:36.243Z,19.00
2019-04-25T19:07:05.693Z,19.00
2019-04-25T19:09:35.051Z,18.00
2019-04-25T19:12:04.755Z,18.80
2019-04-25T19:14:34.328Z,18.70
2019-04-25T19:17:04.306Z,18.80
2019-04-25T19:19:33.654Z,18.40
2019-04-25T19:22:03.163Z,18.40
2019-04-25T19:24:35.418Z,18.40
2019-04-25T19:27:04.862Z,18.20
2019-04-25T19:29:34.260Z,18.30
2019-04-25T19:32:03.757Z,18.50
2019-04-25T19:34:33.179Z,18.40
2019-04-25T19:37:02.658Z,18.50
2019-04-25T19:39:33.682Z,18.30
2019-04-25T19:42:13.538Z,18.20
2019-04-25T19:44:42.969Z,18.10
2019-04-25T19:47:12.329Z,18.00
2019-04-25T19:49:41.829Z,18.00
2019-04-25T19:52:12.299Z,17.90
2019-04-25T19:54:41.951Z,18.00
2019-04-25T19:57:11.486Z,18.00
2019-04-25T19:59:40.909Z,18.00
2019-04-25T20:02:12.008Z,17.90
2019-04-25T20:04:51.847Z,17.80
2019-04-25T20:07:25.756Z,17.80
2019-04-25T20:10:05.555Z,17.60
2019-04-25T20:12:36.645Z,17.30
2019-04-25T20:15:07.100Z,17.40
2019-04-25T20:17:36.542Z,17.30
2019-04-25T20:20:09.337Z,17.40
2019-04-25T20:22:38.808Z,17.40
2019-04-25T20:25:10.088Z,17.40
2019-04-25T20:27:39.467Z,17.30
2019-04-25T20:30:09.353Z,17.40
2019-04-25T20:32:38.750Z,17.60
2019-04-25T20:35:08.522Z,17.60
2019-04-25T20:37:37.895Z,17.70
2019-04-25T20:40:08.580Z,17.60
2019-04-25T20:42:38.033Z,17.60
2019-04-25T20:45:09.078Z,17.50
2019-04-25T20:47:38.505Z,17.60
2019-04-25T20:50:08.385Z,17.70
2019-04-25T20:52:38.212Z,17.50
2019-04-25T20:55:08.518Z,17.20
2019-04-25T20:57:37.943Z,17.50
2019-04-25T21:00:08.837Z,17.60
2019-04-25T21:02:38.303Z,17.30
2019-04-25T21:05:07.915Z,17.60
2019-04-25T21:07:37.387Z,17.20
2019-04-25T21:10:07.118Z,17.20
2019-04-25T21:12:36.532Z,17.10
2019-04-25T21:15:11.607Z,17.10
2019-04-25T21:17:45.356Z,17.20
2019-04-25T21:20:14.878Z,17.40
2019-04-25T21:22:44.254Z,17.40
2019-04-25T21:25:13.947Z,17.40
2019-04-25T21:27:43.447Z,17.50
2019-04-25T21:30:13.567Z,17.50
2019-04-25T21:32:50.518Z,17.50
2019-04-25T21:35:20.874Z,17.60
2019-04-25T21:37:51.097Z,17.50
2019-04-25T21:40:35.325Z,17.50
2019-04-25T21:43:06.763Z,17.60
2019-04-25T21:45:36.404Z,17.10
2019-04-25T21:48:06.342Z,17.10
2019-04-25T21:50:36.076Z,17.30
2019-04-25T21:53:05.775Z,17.30
2019-04-25T21:55:35.410Z,17.40
2019-04-25T21:58:05.108Z,17.30
2019-04-25T22:00:51.446Z,17.30
2019-04-25T22:03:23.151Z,16.70
2019-04-25T22:05:52.760Z,16.70
2019-04-25T22:08:22.272Z,16.70
2019-04-25T22:10:51.983Z,16.90
2019-04-25T22:13:21.349Z,16.90
2019-04-25T22:15:51.032Z,17.00
2019-04-25T22:18:20.571Z,17.00
2019-04-25T22:20:50.081Z,17.00
2019-04-25T22:23:19.869Z,17.10
2019-04-25T22:25:49.496Z,17.10
2019-04-25T22:28:19.105Z,17.10
2019-04-25T22:30:50.470Z,17.20
2019-04-25T22:33:24.099Z,17.10
2019-04-25T22:35:55.103Z,17.10
2019-04-25T22:38:24.714Z,17.10
2019-04-25T22:40:54.098Z,17.00
2019-04-25T22:43:23.713Z,17.00
2019-04-25T22:45:53.449Z,16.90
2019-04-25T22:48:27.838Z,16.90
2019-04-25T22:50:57.227Z,16.80
2019-04-25T22:53:26.803Z,16.80
2019-04-25T22:55:56.695Z,16.70
2019-04-25T22:58:26.063Z,16.60
2019-04-25T23:00:55.411Z,16.60
2019-04-25T23:03:38.411Z,16.60
2019-04-25T23:06:07.768Z,16.50
2019-04-25T23:08:37.103Z,16.50
2019-04-25T23:11:06.523Z,16.40
2019-04-25T23:13:35.862Z,16.40
2019-04-25T23:16:05.503Z,16.40
2019-04-25T23:18:34.856Z,16.30
2019-04-25T23:21:04.306Z,16.30
2019-04-25T23:23:35.230Z,16.20
2019-04-25T23:26:21.542Z,16.10
2019-04-25T23:28:53.173Z,16.10
2019-04-25T23:31:36.285Z,16.10
2019-04-25T23:34:06.959Z,16.00
2019-04-25T23:36:36.702Z,15.90
2019-04-25T23:39:08.295Z,15.80
2019-04-25T23:41:39.085Z,15.80
2019-04-25T23:44:09.099Z,15.70
2019-04-25T23:46:39.726Z,15.60
2019-04-25T23:49:09.108Z,15.60
2019-04-25T23:51:38.470Z,15.60
2019-04-25T23:54:08.864Z,15.50
2019-04-25T23:56:38.408Z,15.30
2019-04-25T23:59:08.913Z,15.20
